Angora, Minnesota
Current Conditions -  °F | °C
As of 8:54 AM on Friday 28 Nov 2014 (Local Time) from KCQM Reporting Station
Light Snow Light Snow  
Wind Chill: -19°   Ceiling: 2200
Heat Index: -13°   Visibility: 7mi
Dew Point: -16°   Wind: 6mph
Humidity: 79%   Direction: 140°SE
Pressure: 30"   Gusts: NA
Location:  47.77°N, 92.63°W
Report Text: KCQM 281454Z AUTO 14005KT 7SM -SN OVC022 M13/M16 A3000 RMK AO2
Loading
Personal Weather Stations






























Interactive Weather Map New forecast layout! Learn more

10-Day Weather Forecast

Advertisements
Track Severe Weather on mobile